sensor_id;sensor_type;location;lat;lon;timestamp;pressure;altitude;pressure_sealevel;temperature;humidity
60920;BME280;59039;52.108;19.942;2023-01-26T00:01:12;101545.67;;;0.81;82.18
60920;BME280;59039;52.108;19.942;2023-01-26T00:06:25;101545.42;;;0.82;82.05
60920;BME280;59039;52.108;19.942;2023-01-26T00:08:54;101543.80;;;0.83;82.00
60920;BME280;59039;52.108;19.942;2023-01-26T00:11:22;101542.70;;;0.84;82.07
60920;BME280;59039;52.108;19.942;2023-01-26T00:14:13;101542.41;;;0.86;82.03
60920;BME280;59039;52.108;19.942;2023-01-26T00:16:42;101536.91;;;0.86;81.94
60920;BME280;59039;52.108;19.942;2023-01-26T00:19:31;101534.55;;;0.82;81.98
60920;BME280;59039;52.108;19.942;2023-01-26T00:22:13;101533.70;;;0.81;82.05
60920;BME280;59039;52.108;19.942;2023-01-26T00:24:44;101531.77;;;0.80;82.01
60920;BME280;59039;52.108;19.942;2023-01-26T00:27:15;101529.77;;;0.77;81.69
60920;BME280;59039;52.108;19.942;2023-01-26T00:29:46;101522.90;;;0.75;81.86
60920;BME280;59039;52.108;19.942;2023-01-26T00:32:14;101528.81;;;0.74;82.04
60920;BME280;59039;52.108;19.942;2023-01-26T00:37:24;101526.66;;;0.74;82.18
60920;BME280;59039;52.108;19.942;2023-01-26T00:39:55;101526.85;;;0.74;82.10
60920;BME280;59039;52.108;19.942;2023-01-26T00:42:21;101526.86;;;0.74;82.06
60920;BME280;59039;52.108;19.942;2023-01-26T00:44:46;101527.36;;;0.75;82.18
60920;BME280;59039;52.108;19.942;2023-01-26T00:47:12;101525.00;;;0.76;82.18
60920;BME280;59039;52.108;19.942;2023-01-26T00:49:38;101524.23;;;0.77;82.40
60920;BME280;59039;52.108;19.942;2023-01-26T00:52:12;101515.44;;;0.78;82.41
60920;BME280;59039;52.108;19.942;2023-01-26T00:54:37;101515.23;;;0.79;82.45
60920;BME280;59039;52.108;19.942;2023-01-26T00:57:03;101511.04;;;0.81;82.49
60920;BME280;59039;52.108;19.942;2023-01-26T00:59:41;101512.75;;;0.83;82.52
60920;BME280;59039;52.108;19.942;2023-01-26T01:02:12;101509.41;;;0.86;82.61
60920;BME280;59039;52.108;19.942;2023-01-26T01:04:49;101510.50;;;0.90;82.39
60920;BME280;59039;52.108;19.942;2023-01-26T01:07:20;101507.17;;;0.92;82.46
60920;BME280;59039;52.108;19.942;2023-01-26T01:12:39;101502.83;;;0.98;82.42
60920;BME280;59039;52.108;19.942;2023-01-26T01:15:05;101503.59;;;1.01;82.36
60920;BME280;59039;52.108;19.942;2023-01-26T01:17:31;101500.99;;;1.03;82.16
60920;BME280;59039;52.108;19.942;2023-01-26T01:20:20;101499.17;;;1.04;82.10
60920;BME280;59039;52.108;19.942;2023-01-26T01:25:26;101493.09;;;1.09;82.11
60920;BME280;59039;52.108;19.942;2023-01-26T01:27:57;101488.61;;;1.09;81.92
60920;BME280;59039;52.108;19.942;2023-01-26T01:30:22;101485.98;;;1.08;81.84
60920;BME280;59039;52.108;19.942;2023-01-26T01:32:51;101482.66;;;1.06;81.76
60920;BME280;59039;52.108;19.942;2023-01-26T01:35:19;101479.37;;;1.04;81.75
60920;BME280;59039;52.108;19.942;2023-01-26T01:37:47;101472.48;;;1.02;81.67
60920;BME280;59039;52.108;19.942;2023-01-26T01:42:47;101463.77;;;0.98;81.64
60920;BME280;59039;52.108;19.942;2023-01-26T01:51:03;101455.20;;;0.90;81.86
60920;BME280;59039;52.108;19.942;2023-01-26T01:56:16;101453.58;;;0.86;82.17
60920;BME280;59039;52.108;19.942;2023-01-26T01:58:44;101450.68;;;0.87;82.18
60920;BME280;59039;52.108;19.942;2023-01-26T02:01:11;101452.45;;;0.87;82.22
60920;BME280;59039;52.108;19.942;2023-01-26T02:06:28;101441.80;;;0.90;82.52
60920;BME280;59039;52.108;19.942;2023-01-26T02:09:04;101441.36;;;0.92;82.56
60920;BME280;59039;52.108;19.942;2023-01-26T02:11:39;101436.78;;;0.94;82.61
60920;BME280;59039;52.108;19.942;2023-01-26T02:14:08;101434.17;;;0.97;82.70
60920;BME280;59039;52.108;19.942;2023-01-26T02:16:38;101434.41;;;0.99;82.56
60920;BME280;59039;52.108;19.942;2023-01-26T02:19:26;101434.66;;;1.02;82.56
60920;BME280;59039;52.108;19.942;2023-01-26T02:22:01;101431.56;;;1.03;82.41
60920;BME280;59039;52.108;19.942;2023-01-26T02:24:43;101428.19;;;1.03;82.44
60920;BME280;59039;52.108;19.942;2023-01-26T02:30:01;101419.29;;;1.06;82.35
60920;BME280;59039;52.108;19.942;2023-01-26T02:33:13;101412.61;;;1.08;82.22
60920;BME280;59039;52.108;19.942;2023-01-26T02:35:43;101409.80;;;1.11;82.20
60920;BME280;59039;52.108;19.942;2023-01-26T02:44:20;101398.89;;;1.15;82.20
60920;BME280;59039;52.108;19.942;2023-01-26T02:46:51;101390.06;;;1.17;82.16
60920;BME280;59039;52.108;19.942;2023-01-26T02:49:17;101385.03;;;1.18;82.20
60920;BME280;59039;52.108;19.942;2023-01-26T02:52:03;101385.29;;;1.20;82.26
60920;BME280;59039;52.108;19.942;2023-01-26T02:57:07;101376.03;;;1.23;82.11
60920;BME280;59039;52.108;19.942;2023-01-26T02:59:35;101373.80;;;1.25;82.20
60920;BME280;59039;52.108;19.942;2023-01-26T03:02:16;101369.29;;;1.26;82.15
60920;BME280;59039;52.108;19.942;2023-01-26T03:07:41;101371.64;;;1.26;82.15
60920;BME280;59039;52.108;19.942;2023-01-26T03:10:13;101373.70;;;1.24;82.13
60920;BME280;59039;52.108;19.942;2023-01-26T03:15:20;101371.78;;;1.23;82.17
60920;BME280;59039;52.108;19.942;2023-01-26T03:20:27;101372.02;;;1.21;82.12
60920;BME280;59039;52.108;19.942;2023-01-26T03:22:56;101363.71;;;1.19;82.12
60920;BME280;59039;52.108;19.942;2023-01-26T03:25:24;101356.23;;;1.19;82.23
60920;BME280;59039;52.108;19.942;2023-01-26T03:27:50;101349.24;;;1.19;82.21
60920;BME280;59039;52.108;19.942;2023-01-26T03:30:21;101348.17;;;1.20;82.19
60920;BME280;59039;52.108;19.942;2023-01-26T03:32:47;101340.38;;;1.18;82.19
60920;BME280;59039;52.108;19.942;2023-01-26T03:37:57;101336.76;;;1.16;82.25
60920;BME280;59039;52.108;19.942;2023-01-26T03:40:22;101333.99;;;1.14;82.34
60920;BME280;59039;52.108;19.942;2023-01-26T03:43:06;101331.77;;;1.12;82.25
60920;BME280;59039;52.108;19.942;2023-01-26T03:45:34;101329.70;;;1.10;82.37
60920;BME280;59039;52.108;19.942;2023-01-26T03:48:11;101332.06;;;1.09;82.29
60920;BME280;59039;52.108;19.942;2023-01-26T03:50:57;101325.86;;;1.09;82.20
60920;BME280;59039;52.108;19.942;2023-01-26T03:56:10;101313.96;;;1.07;82.44
60920;BME280;59039;52.108;19.942;2023-01-26T03:58:53;101313.26;;;1.07;82.49
60920;BME280;59039;52.108;19.942;2023-01-26T04:01:40;101313.47;;;1.06;82.46
60920;BME280;59039;52.108;19.942;2023-01-26T04:04:19;101315.94;;;1.07;82.60
60920;BME280;59039;52.108;19.942;2023-01-26T04:07:14;101313.02;;;1.08;82.63
60920;BME280;59039;52.108;19.942;2023-01-26T04:09:53;101315.08;;;1.10;82.74
60920;BME280;59039;52.108;19.942;2023-01-26T04:12:18;101314.48;;;1.11;82.64
60920;BME280;59039;52.108;19.942;2023-01-26T04:17:57;101306.77;;;1.12;82.66
60920;BME280;59039;52.108;19.942;2023-01-26T04:20:25;101306.65;;;1.10;82.62
60920;BME280;59039;52.108;19.942;2023-01-26T04:28:30;101309.92;;;1.10;82.95
60920;BME280;59039;52.108;19.942;2023-01-26T04:42:29;101305.39;;;1.11;82.90
60920;BME280;59039;52.108;19.942;2023-01-26T04:45:15;101308.51;;;1.13;82.93
60920;BME280;59039;52.108;19.942;2023-01-26T04:50:16;101302.52;;;1.15;83.00
60920;BME280;59039;52.108;19.942;2023-01-26T04:52:45;101304.79;;;1.16;82.81
60920;BME280;59039;52.108;19.942;2023-01-26T04:55:16;101301.21;;;1.12;82.77
60920;BME280;59039;52.108;19.942;2023-01-26T04:57:57;101294.33;;;1.11;82.83
60920;BME280;59039;52.108;19.942;2023-01-26T05:06:06;101305.79;;;1.10;82.96
60920;BME280;59039;52.108;19.942;2023-01-26T05:08:32;101301.27;;;1.07;82.91
60920;BME280;59039;52.108;19.942;2023-01-26T05:11:16;101304.30;;;1.07;83.05
60920;BME280;59039;52.108;19.942;2023-01-26T05:13:54;101299.54;;;1.06;82.96
60920;BME280;59039;52.108;19.942;2023-01-26T05:19:31;101304.33;;;1.03;83.07
60920;BME280;59039;52.108;19.942;2023-01-26T05:22:18;101300.80;;;1.02;83.07
60920;BME280;59039;52.108;19.942;2023-01-26T05:24:45;101297.36;;;0.99;82.97
60920;BME280;59039;52.108;19.942;2023-01-26T05:27:15;101294.64;;;0.96;83.05
60920;BME280;59039;52.108;19.942;2023-01-26T05:29:43;101292.89;;;0.96;83.22
60920;BME280;59039;52.108;19.942;2023-01-26T05:32:21;101291.70;;;0.95;83.22
60920;BME280;59039;52.108;19.942;2023-01-26T05:34:57;101289.77;;;0.94;83.16
60920;BME280;59039;52.108;19.942;2023-01-26T05:37:27;101287.73;;;0.92;83.10
60920;BME280;59039;52.108;19.942;2023-01-26T05:39:57;101282.42;;;0.90;83.28
60920;BME280;59039;52.108;19.942;2023-01-26T05:42:23;101275.98;;;0.91;83.21
60920;BME280;59039;52.108;19.942;2023-01-26T05:50:55;101278.08;;;0.92;83.52
60920;BME280;59039;52.108;19.942;2023-01-26T05:53:22;101282.44;;;0.94;83.46
60920;BME280;59039;52.108;19.942;2023-01-26T05:55:53;101280.67;;;0.94;83.40
60920;BME280;59039;52.108;19.942;2023-01-26T05:58:32;101274.19;;;0.95;83.53
60920;BME280;59039;52.108;19.942;2023-01-26T06:01:03;101272.84;;;0.97;83.40
60920;BME280;59039;52.108;19.942;2023-01-26T06:03:50;101275.65;;;0.98;83.68
60920;BME280;59039;52.108;19.942;2023-01-26T06:06:17;101278.41;;;1.00;83.59
60920;BME280;59039;52.108;19.942;2023-01-26T06:08:43;101280.00;;;1.00;83.62
60920;BME280;59039;52.108;19.942;2023-01-26T06:11:11;101280.83;;;1.01;83.55
60920;BME280;59039;52.108;19.942;2023-01-26T06:13:39;101278.48;;;1.02;83.48
60920;BME280;59039;52.108;19.942;2023-01-26T06:16:45;101279.31;;;1.03;83.49
60920;BME280;59039;52.108;19.942;2023-01-26T06:19:33;101268.06;;;1.04;83.41
60920;BME280;59039;52.108;19.942;2023-01-26T06:21:58;101262.87;;;1.04;83.40
60920;BME280;59039;52.108;19.942;2023-01-26T06:24:27;101263.60;;;1.04;83.43
60920;BME280;59039;52.108;19.942;2023-01-26T06:29:32;101262.25;;;1.06;83.41
60920;BME280;59039;52.108;19.942;2023-01-26T06:31:58;101263.92;;;1.05;83.51
60920;BME280;59039;52.108;19.942;2023-01-26T06:34:29;101266.77;;;1.05;83.34
60920;BME280;59039;52.108;19.942;2023-01-26T06:36:57;101269.03;;;1.02;83.45
60920;BME280;59039;52.108;19.942;2023-01-26T06:39:25;101270.85;;;1.01;83.48
60920;BME280;59039;52.108;19.942;2023-01-26T06:42:10;101272.34;;;1.00;83.39
60920;BME280;59039;52.108;19.942;2023-01-26T06:45:16;101268.02;;;0.97;83.18
60920;BME280;59039;52.108;19.942;2023-01-26T06:47:50;101266.34;;;0.91;83.18
60920;BME280;59039;52.108;19.942;2023-01-26T06:50:30;101264.69;;;0.89;83.49
60920;BME280;59039;52.108;19.942;2023-01-26T06:53:00;101267.52;;;0.89;83.61
60920;BME280;59039;52.108;19.942;2023-01-26T06:55:50;101266.11;;;0.89;83.49
60920;BME280;59039;52.108;19.942;2023-01-26T06:58:26;101272.44;;;0.87;83.49
60920;BME280;59039;52.108;19.942;2023-01-26T07:00:54;101272.94;;;0.83;83.64
60920;BME280;59039;52.108;19.942;2023-01-26T07:03:28;101274.22;;;0.82;83.56
60920;BME280;59039;52.108;19.942;2023-01-26T07:05:56;101271.77;;;0.81;83.65
60920;BME280;59039;52.108;19.942;2023-01-26T07:08:37;101271.05;;;0.82;83.69
60920;BME280;59039;52.108;19.942;2023-01-26T07:11:03;101273.45;;;0.80;83.72
60920;BME280;59039;52.108;19.942;2023-01-26T07:16:37;101269.33;;;0.84;83.97
60920;BME280;59039;52.108;19.942;2023-01-26T07:19:03;101270.69;;;0.86;83.92
60920;BME280;59039;52.108;19.942;2023-01-26T07:21:32;101270.12;;;0.87;83.94
60920;BME280;59039;52.108;19.942;2023-01-26T07:26:59;101264.47;;;0.85;83.81
60920;BME280;59039;52.108;19.942;2023-01-26T07:29:27;101262.22;;;0.84;83.92
60920;BME280;59039;52.108;19.942;2023-01-26T07:31:56;101264.70;;;0.84;83.86
60920;BME280;59039;52.108;19.942;2023-01-26T07:34:23;101259.48;;;0.85;84.07
60920;BME280;59039;52.108;19.942;2023-01-26T07:36:53;101254.38;;;0.88;84.20
60920;BME280;59039;52.108;19.942;2023-01-26T07:39:24;101252.46;;;0.90;84.06
60920;BME280;59039;52.108;19.942;2023-01-26T07:41:52;101249.86;;;0.93;84.01
60920;BME280;59039;52.108;19.942;2023-01-26T07:44:21;101251.45;;;0.93;84.04
60920;BME280;59039;52.108;19.942;2023-01-26T07:47:07;101254.21;;;0.95;84.03
60920;BME280;59039;52.108;19.942;2023-01-26T07:49:47;101253.78;;;0.96;83.95
60920;BME280;59039;52.108;19.942;2023-01-26T07:52:18;101249.51;;;0.96;83.91
60920;BME280;59039;52.108;19.942;2023-01-26T07:54:46;101250.20;;;0.97;83.98
60920;BME280;59039;52.108;19.942;2023-01-26T07:57:37;101249.45;;;0.97;84.00
60920;BME280;59039;52.108;19.942;2023-01-26T08:00:23;101246.91;;;0.98;83.96
60920;BME280;59039;52.108;19.942;2023-01-26T08:02:50;101250.05;;;1.00;83.99
60920;BME280;59039;52.108;19.942;2023-01-26T08:05:28;101252.52;;;1.00;83.89
60920;BME280;59039;52.108;19.942;2023-01-26T08:07:59;101255.08;;;0.99;83.84
60920;BME280;59039;52.108;19.942;2023-01-26T08:10:29;101251.95;;;1.01;84.05
60920;BME280;59039;52.108;19.942;2023-01-26T08:13:00;101253.86;;;1.02;84.00
60920;BME280;59039;52.108;19.942;2023-01-26T08:15:29;101259.96;;;1.06;84.03
60920;BME280;59039;52.108;19.942;2023-01-26T08:17:54;101257.58;;;1.07;83.93
60920;BME280;59039;52.108;19.942;2023-01-26T08:20:22;101261.59;;;1.09;83.96
60920;BME280;59039;52.108;19.942;2023-01-26T08:22:53;101258.05;;;1.08;83.93
60920;BME280;59039;52.108;19.942;2023-01-26T08:25:21;101255.13;;;1.10;83.89
60920;BME280;59039;52.108;19.942;2023-01-26T08:27:53;101254.47;;;1.12;83.84
60920;BME280;59039;52.108;19.942;2023-01-26T08:30:23;101249.32;;;1.15;83.82
60920;BME280;59039;52.108;19.942;2023-01-26T08:32:48;101252.77;;;1.18;83.83
60920;BME280;59039;52.108;19.942;2023-01-26T08:35:16;101250.34;;;1.20;83.87
60920;BME280;59039;52.108;19.942;2023-01-26T08:37:49;101254.31;;;1.22;83.92
60920;BME280;59039;52.108;19.942;2023-01-26T08:40:17;101256.20;;;1.24;83.84
60920;BME280;59039;52.108;19.942;2023-01-26T08:42:54;101257.58;;;1.25;83.73
60920;BME280;59039;52.108;19.942;2023-01-26T08:48:28;101258.58;;;1.27;83.68
60920;BME280;59039;52.108;19.942;2023-01-26T08:51:05;101255.26;;;1.25;83.60
60920;BME280;59039;52.108;19.942;2023-01-26T08:53:55;101255.69;;;1.28;83.61
60920;BME280;59039;52.108;19.942;2023-01-26T08:56:22;101257.01;;;1.30;83.60
60920;BME280;59039;52.108;19.942;2023-01-26T08:58:50;101262.77;;;1.32;83.55
60920;BME280;59039;52.108;19.942;2023-01-26T09:03:52;101275.45;;;1.39;83.66
60920;BME280;59039;52.108;19.942;2023-01-26T09:06:21;101275.54;;;1.41;83.59
60920;BME280;59039;52.108;19.942;2023-01-26T09:08:51;101278.06;;;1.44;83.49
60920;BME280;59039;52.108;19.942;2023-01-26T09:11:19;101274.88;;;1.48;83.52
60920;BME280;59039;52.108;19.942;2023-01-26T09:13:49;101270.42;;;1.51;83.31
60920;BME280;59039;52.108;19.942;2023-01-26T09:16:25;101273.33;;;1.54;83.32
60920;BME280;59039;52.108;19.942;2023-01-26T09:18:53;101276.05;;;1.56;83.32
60920;BME280;59039;52.108;19.942;2023-01-26T09:21:22;101282.14;;;1.59;83.27
60920;BME280;59039;52.108;19.942;2023-01-26T09:23:50;101275.29;;;1.61;83.11
60920;BME280;59039;52.108;19.942;2023-01-26T09:26:21;101266.43;;;1.63;82.89
60920;BME280;59039;52.108;19.942;2023-01-26T09:29:09;101263.44;;;1.65;82.96
60920;BME280;59039;52.108;19.942;2023-01-26T09:31:40;101260.29;;;1.68;82.72
60920;BME280;59039;52.108;19.942;2023-01-26T09:34:09;101257.77;;;1.72;82.83
60920;BME280;59039;52.108;19.942;2023-01-26T09:36:37;101261.00;;;1.75;82.62
60920;BME280;59039;52.108;19.942;2023-01-26T09:39:04;101255.25;;;1.79;82.73
60920;BME280;59039;52.108;19.942;2023-01-26T09:50:56;101249.63;;;1.88;81.94
60920;BME280;59039;52.108;19.942;2023-01-26T09:53:19;101241.17;;;1.89;81.88
60920;BME280;59039;52.108;19.942;2023-01-26T09:55:55;101235.55;;;1.91;81.67
60920;BME280;59039;52.108;19.942;2023-01-26T10:01:30;101237.84;;;1.95;81.28
60920;BME280;59039;52.108;19.942;2023-01-26T10:04:13;101233.94;;;1.98;81.19
60920;BME280;59039;52.108;19.942;2023-01-26T10:06:47;101229.34;;;2.00;81.18
60920;BME280;59039;52.108;19.942;2023-01-26T10:09:43;101223.99;;;2.03;81.38
60920;BME280;59039;52.108;19.942;2023-01-26T10:12:55;101217.39;;;2.06;81.26
60920;BME280;59039;52.108;19.942;2023-01-26T10:15:38;101217.03;;;2.10;81.14
60920;BME280;59039;52.108;19.942;2023-01-26T10:18:10;101221.31;;;2.13;80.76
60920;BME280;59039;52.108;19.942;2023-01-26T10:20:40;101219.91;;;2.16;80.74
60920;BME280;59039;52.108;19.942;2023-01-26T10:31:30;101207.87;;;2.27;80.58
60920;BME280;59039;52.108;19.942;2023-01-26T10:34:35;101202.00;;;2.30;80.53
60920;BME280;59039;52.108;19.942;2023-01-26T10:37:25;101196.52;;;2.33;80.03
60920;BME280;59039;52.108;19.942;2023-01-26T10:40:01;101193.41;;;2.34;80.01
60920;BME280;59039;52.108;19.942;2023-01-26T10:42:29;101197.23;;;2.36;79.85
60920;BME280;59039;52.108;19.942;2023-01-26T10:44:58;101192.34;;;2.37;79.41
60920;BME280;59039;52.108;19.942;2023-01-26T10:47:36;101190.45;;;2.39;79.45
60920;BME280;59039;52.108;19.942;2023-01-26T10:50:22;101185.34;;;2.41;79.41
60920;BME280;59039;52.108;19.942;2023-01-26T10:53:04;101178.61;;;2.42;79.73
60920;BME280;59039;52.108;19.942;2023-01-26T10:55:36;101172.27;;;2.44;79.22
60920;BME280;59039;52.108;19.942;2023-01-26T11:01:11;101169.61;;;2.47;78.83
60920;BME280;59039;52.108;19.942;2023-01-26T11:03:40;101160.57;;;2.48;79.13
60920;BME280;59039;52.108;19.942;2023-01-26T11:06:29;101161.61;;;2.49;78.93
60920;BME280;59039;52.108;19.942;2023-01-26T11:12:11;101155.72;;;2.53;78.47
60920;BME280;59039;52.108;19.942;2023-01-26T11:15:00;101156.71;;;2.54;78.62
60920;BME280;59039;52.108;19.942;2023-01-26T11:26:22;101142.33;;;2.58;78.31
60920;BME280;59039;52.108;19.942;2023-01-26T11:31:41;101131.05;;;2.59;78.11
60920;BME280;59039;52.108;19.942;2023-01-26T11:35:25;101129.25;;;2.59;78.16
60920;BME280;59039;52.108;19.942;2023-01-26T11:38:02;101130.82;;;2.59;78.04
60920;BME280;59039;52.108;19.942;2023-01-26T11:43:57;101124.65;;;2.61;78.00
60920;BME280;59039;52.108;19.942;2023-01-26T11:47:00;101125.23;;;2.63;78.26
60920;BME280;59039;52.108;19.942;2023-01-26T11:52:39;101115.52;;;2.64;77.72
60920;BME280;59039;52.108;19.942;2023-01-26T12:00:53;101114.52;;;2.66;77.37
60920;BME280;59039;52.108;19.942;2023-01-26T12:03:51;101116.15;;;2.66;77.47
60920;BME280;59039;52.108;19.942;2023-01-26T12:06:39;101116.28;;;2.66;77.56
60920;BME280;59039;52.108;19.942;2023-01-26T12:21:02;101100.75;;;2.65;76.65
60920;BME280;59039;52.108;19.942;2023-01-26T12:23:35;101102.17;;;2.66;76.91
60920;BME280;59039;52.108;19.942;2023-01-26T12:29:27;101103.25;;;2.66;76.83
60920;BME280;59039;52.108;19.942;2023-01-26T12:34:52;101102.54;;;2.66;76.65
60920;BME280;59039;52.108;19.942;2023-01-26T12:46:04;101091.90;;;2.64;76.15
60920;BME280;59039;52.108;19.942;2023-01-26T12:49:02;101091.52;;;2.62;76.04
60920;BME280;59039;52.108;19.942;2023-01-26T12:51:47;101090.64;;;2.61;76.14
60920;BME280;59039;52.108;19.942;2023-01-26T12:54:30;101089.45;;;2.60;76.26
60920;BME280;59039;52.108;19.942;2023-01-26T12:57:08;101088.34;;;2.58;76.01
60920;BME280;59039;52.108;19.942;2023-01-26T13:00:28;101087.82;;;2.58;75.93
60920;BME280;59039;52.108;19.942;2023-01-26T13:02:44;101084.98;;;2.57;75.96
60920;BME280;59039;52.108;19.942;2023-01-26T13:05:26;101083.56;;;2.57;76.01
60920;BME280;59039;52.108;19.942;2023-01-26T13:07:52;101082.65;;;2.57;75.95
60920;BME280;59039;52.108;19.942;2023-01-26T13:19:01;101088.41;;;2.60;76.10
60920;BME280;59039;52.108;19.942;2023-01-26T13:26:54;101090.56;;;2.60;76.21
60920;BME280;59039;52.108;19.942;2023-01-26T13:34:39;101091.02;;;2.61;76.05
60920;BME280;59039;52.108;19.942;2023-01-26T13:37:45;101089.20;;;2.61;75.85
60920;BME280;59039;52.108;19.942;2023-01-26T13:40:30;101083.98;;;2.62;75.76
60920;BME280;59039;52.108;19.942;2023-01-26T13:46:27;101078.05;;;2.59;75.22
60920;BME280;59039;52.108;19.942;2023-01-26T13:48:55;101078.82;;;2.58;75.09
60920;BME280;59039;52.108;19.942;2023-01-26T13:51:31;101074.96;;;2.57;75.34
60920;BME280;59039;52.108;19.942;2023-01-26T13:54:03;101074.96;;;2.57;75.17
60920;BME280;59039;52.108;19.942;2023-01-26T13:56:43;101069.08;;;2.57;74.93
60920;BME280;59039;52.108;19.942;2023-01-26T13:59:26;101065.86;;;2.57;74.89
60920;BME280;59039;52.108;19.942;2023-01-26T14:01:55;101060.86;;;2.56;74.71
60920;BME280;59039;52.108;19.942;2023-01-26T14:04:32;101062.83;;;2.57;75.06
60920;BME280;59039;52.108;19.942;2023-01-26T14:07:20;101064.05;;;2.57;75.29
60920;BME280;59039;52.108;19.942;2023-01-26T14:12:38;101065.92;;;2.56;74.85
60920;BME280;59039;52.108;19.942;2023-01-26T14:15:41;101071.33;;;2.55;74.76
60920;BME280;59039;52.108;19.942;2023-01-26T14:18:21;101067.36;;;2.55;74.89
60920;BME280;59039;52.108;19.942;2023-01-26T14:21:12;101065.38;;;2.56;74.69
60920;BME280;59039;52.108;19.942;2023-01-26T14:23:41;101065.70;;;2.57;75.08
60920;BME280;59039;52.108;19.942;2023-01-26T14:26:29;101062.84;;;2.56;75.22
60920;BME280;59039;52.108;19.942;2023-01-26T14:28:58;101064.44;;;2.57;74.92
60920;BME280;59039;52.108;19.942;2023-01-26T14:31:26;101064.20;;;2.58;74.63
60920;BME280;59039;52.108;19.942;2023-01-26T14:33:55;101061.87;;;2.58;74.68
60920;BME280;59039;52.108;19.942;2023-01-26T14:36:26;101056.89;;;2.57;75.06
60920;BME280;59039;52.108;19.942;2023-01-26T14:38:55;101059.20;;;2.57;74.69
60920;BME280;59039;52.108;19.942;2023-01-26T14:41:48;101056.54;;;2.57;74.80
60920;BME280;59039;52.108;19.942;2023-01-26T14:47:14;101050.85;;;2.56;74.43
60920;BME280;59039;52.108;19.942;2023-01-26T14:49:50;101046.30;;;2.55;74.07
60920;BME280;59039;52.108;19.942;2023-01-26T14:52:29;101046.18;;;2.53;74.43
60920;BME280;59039;52.108;19.942;2023-01-26T14:54:57;101047.45;;;2.53;74.41
60920;BME280;59039;52.108;19.942;2023-01-26T14:57:36;101046.40;;;2.53;74.25
60920;BME280;59039;52.108;19.942;2023-01-26T15:00:04;101042.34;;;2.51;74.31
60920;BME280;59039;52.108;19.942;2023-01-26T15:02:58;101043.58;;;2.52;74.23
60920;BME280;59039;52.108;19.942;2023-01-26T15:05:34;101047.49;;;2.52;73.86
60920;BME280;59039;52.108;19.942;2023-01-26T15:08:05;101049.35;;;2.51;74.03
60920;BME280;59039;52.108;19.942;2023-01-26T15:11:11;101045.65;;;2.50;73.84
60920;BME280;59039;52.108;19.942;2023-01-26T15:13:50;101041.62;;;2.48;74.01
60920;BME280;59039;52.108;19.942;2023-01-26T15:17:05;101038.42;;;2.48;74.02
60920;BME280;59039;52.108;19.942;2023-01-26T15:19:05;101037.90;;;2.48;73.74
60920;BME280;59039;52.108;19.942;2023-01-26T15:21:35;101035.40;;;2.48;73.72
60920;BME280;59039;52.108;19.942;2023-01-26T15:24:12;101034.66;;;2.48;73.90
60920;BME280;59039;52.108;19.942;2023-01-26T15:26:41;101032.20;;;2.47;73.62
60920;BME280;59039;52.108;19.942;2023-01-26T15:29:27;101030.50;;;2.46;73.50
60920;BME280;59039;52.108;19.942;2023-01-26T15:31:55;101033.24;;;2.45;73.51
60920;BME280;59039;52.108;19.942;2023-01-26T15:37:30;101038.11;;;2.44;73.35
60920;BME280;59039;52.108;19.942;2023-01-26T15:40:07;101039.42;;;2.43;73.15
60920;BME280;59039;52.108;19.942;2023-01-26T15:42:46;101042.33;;;2.42;73.54
60920;BME280;59039;52.108;19.942;2023-01-26T15:48:18;101047.67;;;2.40;73.25
60920;BME280;59039;52.108;19.942;2023-01-26T15:50:45;101047.55;;;2.39;73.36
60920;BME280;59039;52.108;19.942;2023-01-26T15:53:26;101048.84;;;2.38;73.79
60920;BME280;59039;52.108;19.942;2023-01-26T15:56:00;101050.86;;;2.37;73.42
60920;BME280;59039;52.108;19.942;2023-01-26T15:58:48;101047.33;;;2.36;73.56
60920;BME280;59039;52.108;19.942;2023-01-26T16:04:17;101049.28;;;2.37;73.27
60920;BME280;59039;52.108;19.942;2023-01-26T16:07:30;101059.01;;;2.36;73.55
60920;BME280;59039;52.108;19.942;2023-01-26T16:12:25;101065.49;;;2.35;73.50
60920;BME280;59039;52.108;19.942;2023-01-26T16:15:40;101065.37;;;2.34;73.02
60920;BME280;59039;52.108;19.942;2023-01-26T16:18:09;101064.16;;;2.33;73.26
60920;BME280;59039;52.108;19.942;2023-01-26T16:20:53;101067.60;;;2.32;73.10
60920;BME280;59039;52.108;19.942;2023-01-26T16:23:57;101065.84;;;2.32;73.14
60920;BME280;59039;52.108;19.942;2023-01-26T16:26:27;101070.55;;;2.31;73.38
60920;BME280;59039;52.108;19.942;2023-01-26T16:29:17;101066.83;;;2.30;73.49
60920;BME280;59039;52.108;19.942;2023-01-26T16:31:59;101067.94;;;2.29;73.44
60920;BME280;59039;52.108;19.942;2023-01-26T16:34:53;101070.48;;;2.28;73.23
60920;BME280;59039;52.108;19.942;2023-01-26T16:37:38;101070.48;;;2.28;73.17
60920;BME280;59039;52.108;19.942;2023-01-26T16:40:35;101071.44;;;2.27;73.32
60920;BME280;59039;52.108;19.942;2023-01-26T16:43:04;101071.14;;;2.26;73.40
60920;BME280;59039;52.108;19.942;2023-01-26T16:45:49;101070.28;;;2.26;73.08
60920;BME280;59039;52.108;19.942;2023-01-26T16:48:30;101073.36;;;2.24;73.43
60920;BME280;59039;52.108;19.942;2023-01-26T16:50:55;101072.18;;;2.23;73.07
60920;BME280;59039;52.108;19.942;2023-01-26T16:55:49;101075.61;;;2.23;73.40
60920;BME280;59039;52.108;19.942;2023-01-26T16:58:14;101072.42;;;2.22;73.39
60920;BME280;59039;52.108;19.942;2023-01-26T17:00:43;101074.59;;;2.22;73.93
60920;BME280;59039;52.108;19.942;2023-01-26T17:03:17;101075.49;;;2.22;73.47
60920;BME280;59039;52.108;19.942;2023-01-26T17:05:42;101072.65;;;2.22;73.59
60920;BME280;59039;52.108;19.942;2023-01-26T17:08:10;101070.50;;;2.22;73.62
60920;BME280;59039;52.108;19.942;2023-01-26T17:10:38;101071.61;;;2.21;73.91
60920;BME280;59039;52.108;19.942;2023-01-26T17:13:04;101071.83;;;2.21;73.83